sensor_id;sensor_type;location;lat;lon;timestamp;pressure;altitude;pressure_sealevel;temperature;humidity
24996;BME280;13016;52.162;21.034;2022-11-15T00:00:25;100861.78;;;10.15;68.16
24996;BME280;13016;52.162;21.034;2022-11-15T00:02:54;100858.05;;;10.26;68.22
24996;BME280;13016;52.162;21.034;2022-11-15T00:05:20;100856.73;;;10.27;67.98
24996;BME280;13016;52.162;21.034;2022-11-15T00:07:45;100856.88;;;10.28;68.04
24996;BME280;13016;52.162;21.034;2022-11-15T00:10:10;100849.19;;;10.30;68.03
24996;BME280;13016;52.162;21.034;2022-11-15T00:12:36;100844.65;;;10.39;67.82
24996;BME280;13016;52.162;21.034;2022-11-15T00:15:01;100841.15;;;10.49;67.84
24996;BME280;13016;52.162;21.034;2022-11-15T00:17:26;100840.40;;;10.43;67.55
24996;BME280;13016;52.162;21.034;2022-11-15T00:19:51;100836.44;;;10.34;67.79
24996;BME280;13016;52.162;21.034;2022-11-15T00:22:17;100833.89;;;10.13;68.47
24996;BME280;13016;52.162;21.034;2022-11-15T00:24:42;100832.50;;;10.12;68.74
24996;BME280;13016;52.162;21.034;2022-11-15T00:27:07;100823.71;;;10.15;68.77
24996;BME280;13016;52.162;21.034;2022-11-15T00:29:33;100822.64;;;10.39;68.43
24996;BME280;13016;52.162;21.034;2022-11-15T00:31:58;100817.85;;;10.36;68.12
24996;BME280;13016;52.162;21.034;2022-11-15T00:34:23;100814.70;;;10.29;68.42
24996;BME280;13016;52.162;21.034;2022-11-15T00:36:48;100813.35;;;10.30;68.32
24996;BME280;13016;52.162;21.034;2022-11-15T00:39:14;100808.15;;;10.29;68.17
24996;BME280;13016;52.162;21.034;2022-11-15T00:41:39;100804.56;;;10.13;68.79
24996;BME280;13016;52.162;21.034;2022-11-15T00:44:04;100799.64;;;10.23;68.66
24996;BME280;13016;52.162;21.034;2022-11-15T00:46:29;100799.61;;;10.30;68.48
24996;BME280;13016;52.162;21.034;2022-11-15T00:48:55;100796.81;;;10.33;68.30
24996;BME280;13016;52.162;21.034;2022-11-15T00:51:20;100795.92;;;10.50;68.00
24996;BME280;13016;52.162;21.034;2022-11-15T00:53:46;100786.10;;;10.46;68.09
24996;BME280;13016;52.162;21.034;2022-11-15T00:56:11;100781.98;;;10.63;67.85
24996;BME280;13016;52.162;21.034;2022-11-15T00:58:36;100781.75;;;10.64;67.45
24996;BME280;13016;52.162;21.034;2022-11-15T01:01:09;100778.20;;;10.55;67.37
24996;BME280;13016;52.162;21.034;2022-11-15T01:03:37;100772.48;;;10.47;67.70
24996;BME280;13016;52.162;21.034;2022-11-15T01:06:03;100769.73;;;10.38;67.90
24996;BME280;13016;52.162;21.034;2022-11-15T01:08:29;100769.85;;;10.36;68.16
24996;BME280;13016;52.162;21.034;2022-11-15T01:10:54;100761.67;;;10.41;67.94
24996;BME280;13016;52.162;21.034;2022-11-15T01:13:20;100758.83;;;10.15;68.66
24996;BME280;13016;52.162;21.034;2022-11-15T01:15:45;100752.97;;;10.16;68.87
24996;BME280;13016;52.162;21.034;2022-11-15T01:18:10;100750.66;;;10.10;69.26
24996;BME280;13016;52.162;21.034;2022-11-15T01:20:42;100746.52;;;10.14;69.24
24996;BME280;13016;52.162;21.034;2022-11-15T01:23:08;100741.75;;;10.21;69.06
24996;BME280;13016;52.162;21.034;2022-11-15T01:25:33;100739.16;;;10.30;68.85
24996;BME280;13016;52.162;21.034;2022-11-15T01:27:58;100736.80;;;10.44;68.44
24996;BME280;13016;52.162;21.034;2022-11-15T01:30:23;100731.28;;;10.42;68.24
24996;BME280;13016;52.162;21.034;2022-11-15T01:32:49;100725.80;;;10.39;68.23
24996;BME280;13016;52.162;21.034;2022-11-15T01:35:14;100718.91;;;10.46;68.20
24996;BME280;13016;52.162;21.034;2022-11-15T01:37:39;100713.02;;;10.37;68.34
24996;BME280;13016;52.162;21.034;2022-11-15T01:40:05;100713.40;;;10.17;69.16
24996;BME280;13016;52.162;21.034;2022-11-15T01:42:31;100713.13;;;10.22;69.10
24996;BME280;13016;52.162;21.034;2022-11-15T01:44:56;100728.17;;;10.24;69.13
24996;BME280;13016;52.162;21.034;2022-11-15T01:47:26;100723.89;;;10.42;68.74
24996;BME280;13016;52.162;21.034;2022-11-15T01:49:59;100716.81;;;10.23;68.59
24996;BME280;13016;52.162;21.034;2022-11-15T01:52:28;100719.57;;;10.21;68.89
24996;BME280;13016;52.162;21.034;2022-11-15T01:57:27;100708.55;;;10.22;69.34
24996;BME280;13016;52.162;21.034;2022-11-15T01:59:54;100706.17;;;10.17;69.29
24996;BME280;13016;52.162;21.034;2022-11-15T02:02:20;100705.08;;;10.28;69.13
24996;BME280;13016;52.162;21.034;2022-11-15T02:04:46;100702.13;;;10.40;69.03
24996;BME280;13016;52.162;21.034;2022-11-15T02:07:15;100696.42;;;10.34;68.60
24996;BME280;13016;52.162;21.034;2022-11-15T02:12:28;100688.87;;;10.27;69.09
24996;BME280;13016;52.162;21.034;2022-11-15T02:14:54;100689.00;;;10.38;68.84
24996;BME280;13016;52.162;21.034;2022-11-15T02:25:39;100681.05;;;10.31;69.28
24996;BME280;13016;52.162;21.034;2022-11-15T02:39:09;100676.77;;;10.55;68.16
24996;BME280;13016;52.162;21.034;2022-11-15T02:41:50;100674.90;;;10.63;68.05
24996;BME280;13016;52.162;21.034;2022-11-15T02:44:33;100670.66;;;10.63;67.90
24996;BME280;13016;52.162;21.034;2022-11-15T02:47:05;100665.44;;;10.52;68.25
24996;BME280;13016;52.162;21.034;2022-11-15T02:49:33;100669.19;;;10.58;68.28
24996;BME280;13016;52.162;21.034;2022-11-15T02:51:59;100665.77;;;10.56;68.13
24996;BME280;13016;52.162;21.034;2022-11-15T02:54:28;100667.06;;;10.49;68.20
24996;BME280;13016;52.162;21.034;2022-11-15T02:56:57;100662.86;;;10.45;68.35
24996;BME280;13016;52.162;21.034;2022-11-15T03:02:26;100652.61;;;10.30;68.96
24996;BME280;13016;52.162;21.034;2022-11-15T03:10:55;100638.01;;;10.35;68.50
24996;BME280;13016;52.162;21.034;2022-11-15T03:13:47;100632.15;;;10.17;69.03
24996;BME280;13016;52.162;21.034;2022-11-15T03:16:30;100631.13;;;10.03;69.75
24996;BME280;13016;52.162;21.034;2022-11-15T03:19:28;100626.82;;;10.11;69.66
24996;BME280;13016;52.162;21.034;2022-11-15T03:21:55;100625.54;;;10.22;69.38
24996;BME280;13016;52.162;21.034;2022-11-15T03:24:24;100622.09;;;10.04;69.48
24996;BME280;13016;52.162;21.034;2022-11-15T03:26:52;100621.91;;;9.82;70.73
24996;BME280;13016;52.162;21.034;2022-11-15T03:29:22;100625.09;;;9.91;70.61
24996;BME280;13016;52.162;21.034;2022-11-15T03:31:55;100613.57;;;10.02;70.29
24996;BME280;13016;52.162;21.034;2022-11-15T03:34:31;100605.39;;;9.91;70.31
24996;BME280;13016;52.162;21.034;2022-11-15T03:36:59;100602.96;;;9.83;70.77
24996;BME280;13016;52.162;21.034;2022-11-15T03:39:25;100598.73;;;9.74;71.13
24996;BME280;13016;52.162;21.034;2022-11-15T03:45:06;100593.81;;;9.73;71.39
24996;BME280;13016;52.162;21.034;2022-11-15T03:47:39;100593.35;;;9.88;71.01
24996;BME280;13016;52.162;21.034;2022-11-15T03:50:12;100589.53;;;10.16;70.57
24996;BME280;13016;52.162;21.034;2022-11-15T03:52:39;100585.59;;;10.14;69.86
24996;BME280;13016;52.162;21.034;2022-11-15T03:55:08;100590.77;;;10.26;69.89
24996;BME280;13016;52.162;21.034;2022-11-15T03:57:33;100586.71;;;10.35;69.38
24996;BME280;13016;52.162;21.034;2022-11-15T03:59:59;100586.69;;;10.39;69.39
24996;BME280;13016;52.162;21.034;2022-11-15T04:02:24;100584.20;;;10.49;69.08
24996;BME280;13016;52.162;21.034;2022-11-15T04:04:49;100574.25;;;10.28;69.02
24996;BME280;13016;52.162;21.034;2022-11-15T04:07:14;100575.86;;;10.21;69.06
24996;BME280;13016;52.162;21.034;2022-11-15T04:09:40;100569.80;;;10.25;69.09
24996;BME280;13016;52.162;21.034;2022-11-15T04:12:05;100565.65;;;10.08;69.30
24996;BME280;13016;52.162;21.034;2022-11-15T04:14:30;100561.91;;;10.06;69.67
24996;BME280;13016;52.162;21.034;2022-11-15T04:16:55;100563.59;;;10.23;69.28
24996;BME280;13016;52.162;21.034;2022-11-15T04:19:21;100560.13;;;10.19;69.01
24996;BME280;13016;52.162;21.034;2022-11-15T04:21:46;100556.17;;;9.98;69.57
24996;BME280;13016;52.162;21.034;2022-11-15T04:24:11;100551.27;;;9.91;70.02
24996;BME280;13016;52.162;21.034;2022-11-15T04:26:36;100555.77;;;9.96;70.10
24996;BME280;13016;52.162;21.034;2022-11-15T04:29:02;100553.30;;;10.12;69.93
24996;BME280;13016;52.162;21.034;2022-11-15T04:31:27;100549.17;;;10.04;69.64
24996;BME280;13016;52.162;21.034;2022-11-15T04:33:53;100547.38;;;9.88;69.95
24996;BME280;13016;52.162;21.034;2022-11-15T04:36:19;100543.82;;;9.79;70.46
24996;BME280;13016;52.162;21.034;2022-11-15T04:38:45;100543.45;;;10.02;70.32
24996;BME280;13016;52.162;21.034;2022-11-15T04:41:10;100547.35;;;10.11;69.76
24996;BME280;13016;52.162;21.034;2022-11-15T04:43:35;100541.72;;;10.11;69.66
24996;BME280;13016;52.162;21.034;2022-11-15T04:46:00;100541.56;;;10.11;69.50
24996;BME280;13016;52.162;21.034;2022-11-15T04:48:26;100537.92;;;10.03;69.54
24996;BME280;13016;52.162;21.034;2022-11-15T04:50:51;100538.09;;;10.10;69.61
24996;BME280;13016;52.162;21.034;2022-11-15T04:53:16;100537.86;;;10.13;69.66
24996;BME280;13016;52.162;21.034;2022-11-15T04:55:47;100537.60;;;10.15;69.65
24996;BME280;13016;52.162;21.034;2022-11-15T04:58:12;100534.15;;;10.29;69.48
24996;BME280;13016;52.162;21.034;2022-11-15T05:00:37;100534.02;;;10.22;69.30
24996;BME280;13016;52.162;21.034;2022-11-15T05:03:02;100538.52;;;10.30;69.45
24996;BME280;13016;52.162;21.034;2022-11-15T05:05:28;100537.22;;;10.40;69.18
24996;BME280;13016;52.162;21.034;2022-11-15T05:07:53;100535.25;;;10.41;68.73
24996;BME280;13016;52.162;21.034;2022-11-15T05:10:18;100537.06;;;10.34;68.75
24996;BME280;13016;52.162;21.034;2022-11-15T05:12:43;100538.89;;;10.24;68.77
24996;BME280;13016;52.162;21.034;2022-11-15T05:15:09;100534.91;;;10.19;69.06
24996;BME280;13016;52.162;21.034;2022-11-15T05:17:34;100534.96;;;10.27;69.06
24996;BME280;13016;52.162;21.034;2022-11-15T05:20:00;100521.97;;;10.05;69.43
24996;BME280;13016;52.162;21.034;2022-11-15T05:22:25;100524.22;;;9.96;70.06
24996;BME280;13016;52.162;21.034;2022-11-15T05:24:50;100522.20;;;10.13;70.02
24996;BME280;13016;52.162;21.034;2022-11-15T05:27:15;100522.19;;;10.10;69.72
24996;BME280;13016;52.162;21.034;2022-11-15T05:29:41;100524.86;;;10.22;69.85
24996;BME280;13016;52.162;21.034;2022-11-15T05:32:08;100527.54;;;10.22;69.45
24996;BME280;13016;52.162;21.034;2022-11-15T05:34:33;100522.84;;;10.01;69.85
24996;BME280;13016;52.162;21.034;2022-11-15T05:36:59;100522.30;;;10.05;70.01
24996;BME280;13016;52.162;21.034;2022-11-15T05:39:24;100523.20;;;9.83;70.33
24996;BME280;13016;52.162;21.034;2022-11-15T05:41:53;100522.41;;;9.93;70.40
24996;BME280;13016;52.162;21.034;2022-11-15T05:44:22;100524.33;;;9.97;70.47
24996;BME280;13016;52.162;21.034;2022-11-15T05:46:48;100524.98;;;9.89;70.31
24996;BME280;13016;52.162;21.034;2022-11-15T05:49:17;100523.06;;;9.88;70.51
24996;BME280;13016;52.162;21.034;2022-11-15T05:51:45;100521.83;;;9.88;70.58
24996;BME280;13016;52.162;21.034;2022-11-15T05:54:14;100517.11;;;9.88;70.75
24996;BME280;13016;52.162;21.034;2022-11-15T05:56:40;100518.26;;;9.73;70.97
24996;BME280;13016;52.162;21.034;2022-11-15T05:59:05;100513.29;;;9.80;71.17
24996;BME280;13016;52.162;21.034;2022-11-15T06:01:32;100510.92;;;9.76;70.98
24996;BME280;13016;52.162;21.034;2022-11-15T06:03:58;100511.67;;;9.84;71.04
24996;BME280;13016;52.162;21.034;2022-11-15T06:06:23;100513.85;;;9.95;70.76
24996;BME280;13016;52.162;21.034;2022-11-15T06:08:49;100514.30;;;9.62;71.12
24996;BME280;13016;52.162;21.034;2022-11-15T06:11:14;100515.72;;;9.56;71.87
24996;BME280;13016;52.162;21.034;2022-11-15T06:13:40;100516.53;;;9.76;71.71
24996;BME280;13016;52.162;21.034;2022-11-15T06:16:05;100520.86;;;9.96;71.39
24996;BME280;13016;52.162;21.034;2022-11-15T06:18:34;100521.59;;;9.98;70.82
24996;BME280;13016;52.162;21.034;2022-11-15T06:21:00;100519.84;;;9.95;70.70
24996;BME280;13016;52.162;21.034;2022-11-15T06:23:27;100516.33;;;10.08;70.54
24996;BME280;13016;52.162;21.034;2022-11-15T06:25:52;100522.70;;;10.01;70.38
24996;BME280;13016;52.162;21.034;2022-11-15T06:28:18;100523.41;;;9.94;70.32
24996;BME280;13016;52.162;21.034;2022-11-15T06:30:43;100522.91;;;9.85;70.36
24996;BME280;13016;52.162;21.034;2022-11-15T06:33:08;100520.48;;;9.87;70.48
24996;BME280;13016;52.162;21.034;2022-11-15T06:35:34;100517.42;;;9.66;70.97
24996;BME280;13016;52.162;21.034;2022-11-15T06:38:05;100523.20;;;9.73;70.98
24996;BME280;13016;52.162;21.034;2022-11-15T06:40:33;100527.57;;;9.83;70.81
24996;BME280;13016;52.162;21.034;2022-11-15T06:42:59;100524.69;;;9.97;70.63
24996;BME280;13016;52.162;21.034;2022-11-15T06:45:25;100526.27;;;9.97;70.13
24996;BME280;13016;52.162;21.034;2022-11-15T06:47:50;100525.23;;;9.75;70.41
24996;BME280;13016;52.162;21.034;2022-11-15T06:50:15;100525.42;;;9.87;70.56
24996;BME280;13016;52.162;21.034;2022-11-15T06:52:41;100531.67;;;10.01;70.47
24996;BME280;13016;52.162;21.034;2022-11-15T06:55:07;100525.70;;;10.04;70.05
24996;BME280;13016;52.162;21.034;2022-11-15T06:57:32;100525.90;;;10.13;69.95
24996;BME280;13016;52.162;21.034;2022-11-15T06:59:57;100527.45;;;10.04;69.67
24996;BME280;13016;52.162;21.034;2022-11-15T07:02:23;100529.70;;;9.83;69.95
24996;BME280;13016;52.162;21.034;2022-11-15T07:04:48;100530.63;;;9.92;70.18
24996;BME280;13016;52.162;21.034;2022-11-15T07:07:13;100532.88;;;9.93;69.98
24996;BME280;13016;52.162;21.034;2022-11-15T07:09:39;100533.17;;;9.90;69.94
24996;BME280;13016;52.162;21.034;2022-11-15T07:12:04;100532.11;;;9.87;69.94
24996;BME280;13016;52.162;21.034;2022-11-15T07:14:30;100530.88;;;9.93;69.78
24996;BME280;13016;52.162;21.034;2022-11-15T07:16:55;100526.48;;;9.75;70.07
24996;BME280;13016;52.162;21.034;2022-11-15T07:19:20;100528.80;;;9.83;70.16
24996;BME280;13016;52.162;21.034;2022-11-15T07:21:45;100526.42;;;9.75;70.20
24996;BME280;13016;52.162;21.034;2022-11-15T07:24:11;100533.12;;;9.79;70.26
24996;BME280;13016;52.162;21.034;2022-11-15T07:26:37;100535.09;;;9.75;70.23
24996;BME280;13016;52.162;21.034;2022-11-15T07:29:02;100535.23;;;9.79;70.33
24996;BME280;13016;52.162;21.034;2022-11-15T07:31:27;100534.55;;;9.75;70.40
24996;BME280;13016;52.162;21.034;2022-11-15T07:33:52;100529.63;;;9.62;70.42
24996;BME280;13016;52.162;21.034;2022-11-15T07:36:18;100532.95;;;9.82;70.27
24996;BME280;13016;52.162;21.034;2022-11-15T07:38:43;100530.71;;;9.93;69.77
24996;BME280;13016;52.162;21.034;2022-11-15T07:41:09;100527.51;;;9.78;69.63
24996;BME280;13016;52.162;21.034;2022-11-15T07:43:34;100528.77;;;9.81;69.83
24996;BME280;13016;52.162;21.034;2022-11-15T07:46:07;100522.41;;;9.68;70.21
24996;BME280;13016;52.162;21.034;2022-11-15T07:48:33;100519.63;;;9.71;70.21
24996;BME280;13016;52.162;21.034;2022-11-15T07:50:58;100518.98;;;9.76;70.22
24996;BME280;13016;52.162;21.034;2022-11-15T07:53:24;100519.23;;;9.87;70.08
24996;BME280;13016;52.162;21.034;2022-11-15T07:55:49;100520.89;;;10.02;69.52
24996;BME280;13016;52.162;21.034;2022-11-15T07:58:14;100514.70;;;9.99;68.75
24996;BME280;13016;52.162;21.034;2022-11-15T08:00:40;100512.05;;;9.99;68.78
24996;BME280;13016;52.162;21.034;2022-11-15T08:03:08;100507.16;;;9.86;68.50
24996;BME280;13016;52.162;21.034;2022-11-15T08:05:34;100509.98;;;9.83;68.54
24996;BME280;13016;52.162;21.034;2022-11-15T08:08:00;100502.95;;;9.98;68.44
24996;BME280;13016;52.162;21.034;2022-11-15T08:10:26;100496.38;;;10.09;67.97
24996;BME280;13016;52.162;21.034;2022-11-15T08:12:59;100491.59;;;10.12;67.82
24996;BME280;13016;52.162;21.034;2022-11-15T08:15:25;100492.19;;;10.20;67.78
24996;BME280;13016;52.162;21.034;2022-11-15T08:17:57;100486.58;;;10.10;67.34
24996;BME280;13016;52.162;21.034;2022-11-15T08:20:23;100485.39;;;10.12;67.67
24996;BME280;13016;52.162;21.034;2022-11-15T08:22:49;100481.01;;;10.27;67.31
24996;BME280;13016;52.162;21.034;2022-11-15T08:25:15;100479.81;;;10.39;67.23
24996;BME280;13016;52.162;21.034;2022-11-15T08:27:40;100476.70;;;10.41;66.84
24996;BME280;13016;52.162;21.034;2022-11-15T08:30:06;100476.45;;;10.27;66.99
24996;BME280;13016;52.162;21.034;2022-11-15T08:32:32;100475.91;;;10.30;66.98
24996;BME280;13016;52.162;21.034;2022-11-15T08:34:57;100469.96;;;10.32;67.08
24996;BME280;13016;52.162;21.034;2022-11-15T08:37:22;100470.43;;;10.24;67.45
24996;BME280;13016;52.162;21.034;2022-11-15T08:39:48;100473.04;;;10.34;67.44
24996;BME280;13016;52.162;21.034;2022-11-15T08:42:13;100466.08;;;10.30;67.10
24996;BME280;13016;52.162;21.034;2022-11-15T08:44:38;100464.69;;;10.11;67.52
24996;BME280;13016;52.162;21.034;2022-11-15T08:47:04;100464.42;;;9.97;68.03
24996;BME280;13016;52.162;21.034;2022-11-15T08:49:30;100465.42;;;10.10;67.93
24996;BME280;13016;52.162;21.034;2022-11-15T08:51:55;100464.69;;;9.98;68.13
24996;BME280;13016;52.162;21.034;2022-11-15T08:54:20;100469.39;;;10.18;68.06
24996;BME280;13016;52.162;21.034;2022-11-15T08:56:45;100467.27;;;10.27;67.61
24996;BME280;13016;52.162;21.034;2022-11-15T08:59:10;100465.55;;;10.35;67.55
24996;BME280;13016;52.162;21.034;2022-11-15T09:01:36;100466.24;;;10.54;67.47
24996;BME280;13016;52.162;21.034;2022-11-15T09:04:01;100467.73;;;10.58;66.85
24996;BME280;13016;52.162;21.034;2022-11-15T09:06:26;100464.31;;;10.45;66.74
24996;BME280;13016;52.162;21.034;2022-11-15T09:08:56;100462.61;;;10.32;67.05
24996;BME280;13016;52.162;21.034;2022-11-15T09:11:21;100458.05;;;10.49;67.01
24996;BME280;13016;52.162;21.034;2022-11-15T09:13:46;100451.73;;;10.51;66.57
24996;BME280;13016;52.162;21.034;2022-11-15T09:16:12;100449.93;;;10.43;66.83
24996;BME280;13016;52.162;21.034;2022-11-15T09:18:37;100446.71;;;10.47;66.80
24996;BME280;13016;52.162;21.034;2022-11-15T09:21:02;100444.12;;;10.44;66.95
24996;BME280;13016;52.162;21.034;2022-11-15T09:23:27;100441.20;;;10.27;67.44
24996;BME280;13016;52.162;21.034;2022-11-15T09:25:58;100437.66;;;10.33;67.68
24996;BME280;13016;52.162;21.034;2022-11-15T09:28:24;100430.80;;;10.51;67.65
24996;BME280;13016;52.162;21.034;2022-11-15T09:30:49;100429.14;;;10.55;67.16
24996;BME280;13016;52.162;21.034;2022-11-15T09:33:14;100430.24;;;10.43;67.16
24996;BME280;13016;52.162;21.034;2022-11-15T09:35:40;100427.61;;;10.45;67.31
24996;BME280;13016;52.162;21.034;2022-11-15T09:38:05;100427.52;;;10.29;67.47
24996;BME280;13016;52.162;21.034;2022-11-15T09:40:31;100424.80;;;10.15;67.88
24996;BME280;13016;52.162;21.034;2022-11-15T09:46:13;100417.55;;;10.24;68.02
24996;BME280;13016;52.162;21.034;2022-11-15T09:48:57;100414.29;;;10.20;68.17
24996;BME280;13016;52.162;21.034;2022-11-15T09:51:25;100413.84;;;9.97;68.97
24996;BME280;13016;52.162;21.034;2022-11-15T09:54:00;100406.58;;;10.04;68.92
24996;BME280;13016;52.162;21.034;2022-11-15T09:56:32;100400.30;;;10.27;68.68
24996;BME280;13016;52.162;21.034;2022-11-15T10:02:08;100398.02;;;10.12;69.16
24996;BME280;13016;52.162;21.034;2022-11-15T10:04:38;100387.89;;;10.19;68.72
24996;BME280;13016;52.162;21.034;2022-11-15T10:10:20;100379.16;;;10.24;68.67
24996;BME280;13016;52.162;21.034;2022-11-15T10:12:50;100383.30;;;10.31;68.52
24996;BME280;13016;52.162;21.034;2022-11-15T10:15:18;100377.39;;;10.32;68.26
24996;BME280;13016;52.162;21.034;2022-11-15T10:18:18;100384.02;;;10.10;68.69
24996;BME280;13016;52.162;21.034;2022-11-15T10:20:58;100380.45;;;10.14;69.11
24996;BME280;13016;52.162;21.034;2022-11-15T10:23:24;100373.64;;;10.19;68.76
24996;BME280;13016;52.162;21.034;2022-11-15T10:25:59;100376.63;;;10.27;68.86
24996;BME280;13016;52.162;21.034;2022-11-15T10:28:29;100375.04;;;10.33;68.61
24996;BME280;13016;52.162;21.034;2022-11-15T10:30:57;100378.98;;;10.05;69.40
24996;BME280;13016;52.162;21.034;2022-11-15T10:33:31;100376.54;;;10.05;69.42
24996;BME280;13016;52.162;21.034;2022-11-15T10:43:42;100366.81;;;10.12;69.46
24996;BME280;13016;52.162;21.034;2022-11-15T10:46:21;100361.19;;;10.12;69.60
24996;BME280;13016;52.162;21.034;2022-11-15T10:48:47;100358.45;;;10.28;69.39
24996;BME280;13016;52.162;21.034;2022-11-15T10:51:42;100355.62;;;10.22;69.24
24996;BME280;13016;52.162;21.034;2022-11-15T10:54:07;100355.61;;;10.49;69.25
24996;BME280;13016;52.162;21.034;2022-11-15T10:56:35;100351.88;;;10.46;68.35
24996;BME280;13016;52.162;21.034;2022-11-15T10:59:00;100350.05;;;10.39;68.68
24996;BME280;13016;52.162;21.034;2022-11-15T11:01:27;100349.51;;;10.59;68.61
24996;BME280;13016;52.162;21.034;2022-11-15T11:04:03;100347.20;;;10.68;68.00
24996;BME280;13016;52.162;21.034;2022-11-15T11:06:29;100338.45;;;10.58;68.11
24996;BME280;13016;52.162;21.034;2022-11-15T11:08:58;100337.05;;;10.64;68.11
24996;BME280;13016;52.162;21.034;2022-11-15T11:11:25;100341.08;;;10.87;67.88
24996;BME280;13016;52.162;21.034;2022-11-15T11:13:50;100333.82;;;10.84;67.55
24996;BME280;13016;52.162;21.034;2022-11-15T11:16:40;100335.59;;;10.81;67.08
24996;BME280;13016;52.162;21.034;2022-11-15T11:35:20;100332.86;;;11.21;67.22
24996;BME280;13016;52.162;21.034;2022-11-15T11:45:53;100306.97;;;11.55;66.36
24996;BME280;13016;52.162;21.034;2022-11-15T11:48:43;100302.70;;;11.67;65.41
24996;BME280;13016;52.162;21.034;2022-11-15T11:51:19;100298.96;;;11.73;65.17
24996;BME280;13016;52.162;21.034;2022-11-15T11:54:00;100296.71;;;11.63;65.08
24996;BME280;13016;52.162;21.034;2022-11-15T11:56:31;100289.36;;;11.63;65.32
24996;BME280;13016;52.162;21.034;2022-11-15T12:01:48;100280.27;;;11.18;66.60
24996;BME280;13016;52.162;21.034;2022-11-15T12:09:44;100275.16;;;11.42;66.03
24996;BME280;13016;52.162;21.034;2022-11-15T12:15:41;100274.23;;;11.45;66.09
24996;BME280;13016;52.162;21.034;2022-11-15T12:18:13;100268.11;;;11.52;66.01
24996;BME280;13016;52.162;21.034;2022-11-15T12:20:42;100267.75;;;11.52;65.91
24996;BME280;13016;52.162;21.034;2022-11-15T12:23:20;100265.52;;;11.49;65.85
24996;BME280;13016;52.162;21.034;2022-11-15T12:28:21;100263.42;;;11.59;65.98
24996;BME280;13016;52.162;21.034;2022-11-15T12:30:54;100260.16;;;11.66;65.76
24996;BME280;13016;52.162;21.034;2022-11-15T12:33:47;100265.38;;;11.85;65.14
24996;BME280;13016;52.162;21.034;2022-11-15T12:41:13;100256.80;;;12.07;64.52
24996;BME280;13016;52.162;21.034;2022-11-15T12:43:41;100251.57;;;12.11;64.13
24996;BME280;13016;52.162;21.034;2022-11-15T12:46:12;100258.36;;;12.03;64.05
24996;BME280;13016;52.162;21.034;2022-11-15T12:51:03;100246.48;;;12.18;63.82
24996;BME280;13016;52.162;21.034;2022-11-15T12:53:33;100240.39;;;12.20;63.94
24996;BME280;13016;52.162;21.034;2022-11-15T12:58:57;100240.04;;;12.29;63.57
24996;BME280;13016;52.162;21.034;2022-11-15T13:04:15;100238.85;;;12.43;63.21
24996;BME280;13016;52.162;21.034;2022-11-15T13:07:03;100234.98;;;12.33;62.81
24996;BME280;13016;52.162;21.034;2022-11-15T13:12:01;100240.29;;;12.38;62.75
24996;BME280;13016;52.162;21.034;2022-11-15T13:19:46;100235.75;;;12.25;63.16
24996;BME280;13016;52.162;21.034;2022-11-15T13:22:13;100235.70;;;12.11;63.77
24996;BME280;13016;52.162;21.034;2022-11-15T13:24:39;100236.95;;;12.08;63.65
24996;BME280;13016;52.162;21.034;2022-11-15T13:27:15;100229.00;;;12.23;63.33
24996;BME280;13016;52.162;21.034;2022-11-15T13:29:43;100222.39;;;12.31;63.04
24996;BME280;13016;52.162;21.034;2022-11-15T13:32:13;100221.76;;;12.32;62.58
24996;BME280;13016;52.162;21.034;2022-11-15T13:34:43;100220.58;;;12.17;62.58
24996;BME280;13016;52.162;21.034;2022-11-15T13:37:27;100221.92;;;12.11;62.99
24996;BME280;13016;52.162;21.034;2022-11-15T13:39:52;100216.23;;;12.18;63.22
24996;BME280;13016;52.162;21.034;2022-11-15T13:42:19;100209.39;;;12.25;63.31
24996;BME280;13016;52.162;21.034;2022-11-15T13:45:00;100209.09;;;12.34;63.20
24996;BME280;13016;52.162;21.034;2022-11-15T13:47:27;100204.11;;;12.32;62.71
24996;BME280;13016;52.162;21.034;2022-11-15T13:49:53;100201.88;;;12.31;63.03
24996;BME280;13016;52.162;21.034;2022-11-15T13:52:19;100200.38;;;12.37;63.02
24996;BME280;13016;52.162;21.034;2022-11-15T13:54:59;100201.52;;;12.46;62.79
24996;BME280;13016;52.162;21.034;2022-11-15T13:57:37;100195.17;;;12.50;62.75
24996;BME280;13016;52.162;21.034;2022-11-15T14:00:21;100203.62;;;12.56;62.47
24996;BME280;13016;52.162;21.034;2022-11-15T14:02:47;100202.38;;;12.58;62.18
24996;BME280;13016;52.162;21.034;2022-11-15T14:05:17;100199.92;;;12.58;61.98
24996;BME280;13016;52.162;21.034;2022-11-15T14:10:41;100202.90;;;12.44;62.21
24996;BME280;13016;52.162;21.034;2022-11-15T14:13:26;100199.75;;;12.39;62.01
24996;BME280;13016;52.162;21.034;2022-11-15T14:15:52;100195.69;;;12.33;62.04
24996;BME280;13016;52.162;21.034;2022-11-15T14:18:43;100194.13;;;12.31;62.04
24996;BME280;13016;52.162;21.034;2022-11-15T14:21:09;100197.91;;;12.32;62.32
24996;BME280;13016;52.162;21.034;2022-11-15T14:23:34;100194.84;;;12.28;62.09
24996;BME280;13016;52.162;21.034;2022-11-15T14:26:00;100189.78;;;12.27;62.14
24996;BME280;13016;52.162;21.034;2022-11-15T14:30:52;100184.08;;;12.33;62.15
24996;BME280;13016;52.162;21.034;2022-11-15T14:33:32;100179.46;;;12.33;62.04
24996;BME280;13016;52.162;21.034;2022-11-15T14:36:03;100178.41;;;12.35;61.93
24996;BME280;13016;52.162;21.034;2022-11-15T14:38:29;100172.63;;;12.37;61.97
24996;BME280;13016;52.162;21.034;2022-11-15T14:40:55;100176.00;;;12.39;61.81
24996;BME280;13016;52.162;21.034;2022-11-15T14:43:20;100179.36;;;12.37;61.49
24996;BME280;13016;52.162;21.034;2022-11-15T14:45:45;100178.14;;;12.29;61.56